Pagrindinis puslapis
METAR-TAF:

METAR-TAF

Oro uostai :

Ernšioldsvikas, Švedija

platuma: 63-24N, ilguma: 018-58E, Aukštis: 103 m

Dabartinis oras

Ataskaita buvo paskelbta 19 minutes, ne 17:20 UTC
Vėjas 8 kt iš Pietų/Pietvakarių, svyruoja nuo Pietų ir Pietvakarių
Temperatūra 13°C
Drėgmė 67%
Slėgis 1012 hPa
Matomumas 10 km arba daugiau
Mažai debesys ne aukštis 2400 ft

METAR: ESNO 141720Z 20008KT 170V230 9999 FEW024 13/07 Q1012

Laikas: 19:39 (17:39 UTC)

Prognozė

Ataskaita buvo paskelbta 3 valandos ir 9 minutes, ne 14:30 UTC
Prognozė galioja nuo 14 metu 15 UTC su 14 metu 19 UTC
Vėjas 9 kt iš Pietų
Matomumas 10 km arba daugiau
nėra debesų žemiau 1500 m ir nėra kamuolinių lietaus debesų

TAF: ESNO 141430Z 1415/1419 17009KT CAVOK

Orai ataskaitas ir orų prognozės (METAR, TAF).

turimą stotys yra geltonos ir raudonos taškus žemėlapyje.

Perkelti pele per norėdami pamatyti stoties vardą.

Tada spustelėkite, norėdami matyti oro stebėjimo ir prognozės.

Norėdami pakeisti žemėlapį: spustelėkite ant žalios mygtukų su juodo kryžiaus žemyn,; žalią mygtuką su brūkšneliu, jei norite nutolinti; arba žalių rodyklių gretimoms žemėlapius.


METAR-TAF: